createdAt,value
2023-03-22T00:00:42.442Z,100045.80
2023-03-22T00:03:27.849Z,100048.40
2023-03-22T00:06:03.228Z,100046.20
2023-03-22T00:08:36.463Z,100037.00
2023-03-22T00:11:10.970Z,100040.00
2023-03-22T00:13:44.213Z,100031.80
2023-03-22T00:16:18.520Z,100026.80
2023-03-22T00:18:51.825Z,100025.40
2023-03-22T00:21:24.903Z,100024.60
2023-03-22T00:23:58.147Z,100018.80
2023-03-22T00:26:31.326Z,100015.20
2023-03-22T00:29:05.027Z,100009.60
2023-03-22T00:31:38.223Z,100000.80
2023-03-22T00:34:11.779Z,100003.80
2023-03-22T00:36:45.826Z,99997.20
2023-03-22T00:39:18.878Z,99994.40
2023-03-22T00:41:52.296Z,99989.80
2023-03-22T00:44:25.551Z,99989.60
2023-03-22T00:46:58.846Z,99983.00
2023-03-22T00:49:32.178Z,99982.60
2023-03-22T00:52:05.605Z,99980.20
2023-03-22T00:54:39.314Z,99985.00
2023-03-22T00:57:14.341Z,99976.20
2023-03-22T00:59:47.474Z,99973.20
2023-03-22T01:02:20.982Z,99969.00
2023-03-22T01:04:54.279Z,99967.00
2023-03-22T01:07:27.701Z,99967.20
2023-03-22T01:10:01.153Z,99961.40
2023-03-22T01:12:34.202Z,99969.80
2023-03-22T01:15:09.137Z,99966.00
2023-03-22T01:17:42.219Z,99964.00
2023-03-22T01:20:16.806Z,99964.80
2023-03-22T01:22:50.032Z,99964.20
2023-03-22T01:25:23.280Z,99957.00
2023-03-22T01:27:56.430Z,99957.80
2023-03-22T01:30:29.624Z,99952.80
2023-03-22T01:33:02.681Z,99950.40
2023-03-22T01:35:36.745Z,99945.20
2023-03-22T01:38:10.416Z,99936.20
2023-03-22T01:40:49.179Z,99936.40
2023-03-22T01:43:22.510Z,99933.60
2023-03-22T01:45:56.415Z,99930.60
2023-03-22T01:48:35.119Z,99933.20
2023-03-22T01:51:13.122Z,99937.80
2023-03-22T01:54:07.653Z,99940.80
2023-03-22T01:56:43.482Z,99933.40
2023-03-22T01:59:22.567Z,99927.40
2023-03-22T02:02:25.044Z,99927.40
2023-03-22T02:05:07.322Z,99924.20
2023-03-22T02:07:42.872Z,99925.00
2023-03-22T02:10:18.103Z,99925.00
2023-03-22T02:13:21.032Z,99924.20
2023-03-22T02:16:15.932Z,99929.80
2023-03-22T02:19:24.084Z,99928.60
2023-03-22T02:22:38.949Z,99923.40
2023-03-22T02:25:53.710Z,99915.80
2023-03-22T02:28:49.812Z,99916.20
2023-03-22T02:32:05.478Z,99913.60
2023-03-22T02:35:27.150Z,99911.40
2023-03-22T02:38:54.900Z,99914.00
2023-03-22T02:41:37.907Z,99911.40
2023-03-22T02:44:19.017Z,99914.40
2023-03-22T02:47:00.850Z,99913.40
2023-03-22T02:49:39.739Z,99911.60
2023-03-22T02:52:20.396Z,99909.20
2023-03-22T02:55:04.386Z,99907.40
2023-03-22T02:57:43.359Z,99907.20
2023-03-22T03:00:21.176Z,99907.20
2023-03-22T03:03:00.214Z,99907.00
2023-03-22T03:05:35.574Z,99902.60
2023-03-22T03:08:11.447Z,99900.60
2023-03-22T03:10:46.385Z,99905.40
2023-03-22T03:13:20.736Z,99909.60
2023-03-22T03:15:58.950Z,99911.80
2023-03-22T03:18:48.659Z,99914.20
2023-03-22T03:21:34.905Z,99911.40
2023-03-22T03:24:22.791Z,99911.80
2023-03-22T03:27:05.878Z,99916.60
2023-03-22T03:29:46.583Z,99924.80
2023-03-22T03:32:28.233Z,99928.60
2023-03-22T03:35:07.260Z,99936.40
2023-03-22T03:37:47.264Z,99933.20
2023-03-22T03:40:25.271Z,99937.40
2023-03-22T03:45:50.476Z,99938.60
2023-03-22T03:48:34.286Z,99938.60
2023-03-22T03:51:07.997Z,99941.20
2023-03-22T03:53:41.284Z,99939.80
2023-03-22T03:56:15.270Z,99938.60
2023-03-22T03:58:50.832Z,99941.20
2023-03-22T04:01:24.349Z,99948.00
2023-03-22T04:04:02.301Z,99946.40
2023-03-22T04:06:42.919Z,99950.60
2023-03-22T04:09:19.285Z,99952.60
2023-03-22T04:11:55.933Z,99952.00
2023-03-22T04:14:29.661Z,99951.60
2023-03-22T04:17:04.849Z,99950.40
2023-03-22T04:19:38.371Z,99947.20
2023-03-22T04:22:14.849Z,99944.40
2023-03-22T04:24:50.429Z,99942.20
2023-03-22T04:27:25.400Z,99941.00
2023-03-22T04:30:19.169Z,99938.80
2023-03-22T04:33:07.365Z,99934.60
2023-03-22T04:36:10.474Z,99934.00
2023-03-22T04:38:54.350Z,99931.40
2023-03-22T04:41:30.298Z,99929.20
2023-03-22T04:44:04.025Z,99930.00
2023-03-22T04:46:40.056Z,99924.40
2023-03-22T04:49:13.351Z,99925.60
2023-03-22T04:51:46.532Z,99922.00
2023-03-22T04:54:34.712Z,99920.40
2023-03-22T04:57:07.951Z,99915.60
2023-03-22T04:59:46.459Z,99911.40
2023-03-22T05:02:20.668Z,99903.20
2023-03-22T05:04:54.341Z,99903.00
2023-03-22T05:07:36.667Z,99903.60
2023-03-22T05:10:12.447Z,99902.00
2023-03-22T05:12:46.359Z,99903.40
2023-03-22T05:15:24.505Z,99899.00
2023-03-22T05:17:58.171Z,99899.20
2023-03-22T05:20:31.248Z,99904.20
2023-03-22T05:23:30.572Z,99907.80
2023-03-22T05:26:04.448Z,99911.40
2023-03-22T05:28:38.711Z,99907.60
2023-03-22T05:31:34.797Z,99905.00
2023-03-22T05:34:09.909Z,99910.40
2023-03-22T05:36:44.128Z,99917.00
2023-03-22T05:39:38.765Z,99918.00
2023-03-22T05:42:11.920Z,99918.00
2023-03-22T05:44:45.511Z,99926.00
2023-03-22T05:47:19.210Z,99923.40
2023-03-22T05:50:01.417Z,99927.60
2023-03-22T05:52:35.140Z,99921.40
2023-03-22T05:55:26.596Z,99925.80
2023-03-22T05:58:03.375Z,99923.60
2023-03-22T06:00:37.300Z,99917.40
2023-03-22T06:03:29.319Z,99916.20
2023-03-22T06:06:14.025Z,99909.60
2023-03-22T06:09:14.148Z,99908.80
2023-03-22T06:11:49.998Z,99911.00
2023-03-22T06:14:23.806Z,99912.80
2023-03-22T06:17:03.496Z,99913.60
2023-03-22T06:19:36.831Z,99909.40
2023-03-22T06:22:10.854Z,99911.80
2023-03-22T06:24:44.210Z,99920.80
2023-03-22T06:27:20.515Z,99914.20
2023-03-22T06:29:55.095Z,99921.00
2023-03-22T06:32:30.925Z,99923.80
2023-03-22T06:35:04.122Z,99918.00
2023-03-22T06:37:37.227Z,99914.00
2023-03-22T06:40:13.239Z,99911.60
2023-03-22T06:42:46.363Z,99910.20
2023-03-22T06:45:19.756Z,99916.20
2023-03-22T06:47:52.878Z,99921.00
2023-03-22T06:50:41.227Z,99923.00
2023-03-22T06:53:18.749Z,99918.00
2023-03-22T06:55:55.303Z,99920.00
2023-03-22T06:58:30.112Z,99925.20
2023-03-22T07:01:04.413Z,99923.80
2023-03-22T07:03:38.576Z,99921.40
2023-03-22T07:06:17.299Z,99925.20
2023-03-22T07:08:53.646Z,99927.80
2023-03-22T07:11:31.341Z,99932.20
2023-03-22T07:14:06.032Z,99926.80
2023-03-22T07:17:01.767Z,99924.20
2023-03-22T07:19:35.603Z,99932.00
2023-03-22T07:22:12.846Z,99935.80
2023-03-22T07:24:56.202Z,99926.80
2023-03-22T07:27:31.563Z,99929.20
2023-03-22T07:30:05.964Z,99926.60
2023-03-22T07:32:42.304Z,99919.00
2023-03-22T07:35:20.019Z,99915.60
2023-03-22T07:37:53.345Z,99914.20
2023-03-22T07:40:34.495Z,99909.80
2023-03-22T07:43:08.184Z,99909.20
2023-03-22T07:46:01.161Z,99910.00
2023-03-22T07:49:00.099Z,99912.40
2023-03-22T07:51:53.067Z,99910.40
2023-03-22T07:54:33.471Z,99907.40
2023-03-22T07:57:08.797Z,99907.60
2023-03-22T07:59:45.884Z,99902.80
2023-03-22T08:02:19.456Z,99903.60
2023-03-22T08:04:56.628Z,99897.60
2023-03-22T08:07:44.777Z,99899.00
2023-03-22T08:10:18.962Z,99897.60
2023-03-22T08:12:52.106Z,99898.40
2023-03-22T08:15:29.062Z,99898.80
2023-03-22T08:18:02.397Z,99898.80
2023-03-22T08:20:41.550Z,99895.80
2023-03-22T08:23:20.120Z,99898.80
2023-03-22T08:26:24.836Z,99889.80
2023-03-22T08:28:59.888Z,99890.40
2023-03-22T08:31:35.545Z,99891.00
2023-03-22T08:34:08.974Z,99891.80
2023-03-22T08:36:42.570Z,99888.60
2023-03-22T08:39:16.074Z,99894.20
2023-03-22T08:42:15.580Z,99892.80
2023-03-22T08:44:48.686Z,99893.40
2023-03-22T08:47:21.888Z,99887.60
2023-03-22T08:49:58.175Z,99888.40
2023-03-22T08:52:40.538Z,99887.40
2023-03-22T08:55:20.953Z,99877.40
2023-03-22T08:57:59.094Z,99882.40
2023-03-22T09:00:48.573Z,99883.20
2023-03-22T09:03:37.143Z,99882.40
2023-03-22T09:06:12.404Z,99886.40
2023-03-22T09:08:47.265Z,99879.20
2023-03-22T09:11:22.110Z,99875.80
2023-03-22T09:13:55.597Z,99874.60
2023-03-22T09:16:28.826Z,99877.00
2023-03-22T09:19:02.946Z,99873.80
2023-03-22T09:21:36.851Z,99870.20
2023-03-22T09:24:14.646Z,99861.60
2023-03-22T09:26:52.658Z,99859.80
2023-03-22T09:29:25.759Z,99854.40
2023-03-22T09:31:59.023Z,99853.00
2023-03-22T09:34:36.334Z,99855.40
2023-03-22T09:37:09.670Z,99852.80
2023-03-22T09:39:50.266Z,99852.20
2023-03-22T09:42:35.313Z,99854.80
2023-03-22T09:45:16.815Z,99859.00
2023-03-22T09:47:54.278Z,99862.80
2023-03-22T09:50:31.101Z,99861.40
2023-03-22T09:53:04.440Z,99852.20
2023-03-22T09:55:42.521Z,99851.20
2023-03-22T09:58:25.751Z,99848.80
2023-03-22T10:01:04.896Z,99846.20
2023-03-22T10:04:04.582Z,99846.40
2023-03-22T10:06:37.724Z,99842.60
2023-03-22T10:09:22.583Z,99842.40
2023-03-22T10:12:05.224Z,99846.00
2023-03-22T10:14:41.538Z,99846.60
2023-03-22T10:17:19.667Z,99845.80
2023-03-22T10:20:00.399Z,99841.40
2023-03-22T10:22:37.937Z,99843.40
2023-03-22T10:25:20.533Z,99847.60
2023-03-22T10:27:54.719Z,99842.00
2023-03-22T10:30:32.036Z,99843.00
2023-03-22T10:33:14.143Z,99846.40
2023-03-22T10:35:47.857Z,99849.60
2023-03-22T10:38:27.632Z,99843.60
2023-03-22T10:41:03.762Z,99844.40
2023-03-22T10:43:40.672Z,99843.20
2023-03-22T10:46:23.064Z,99840.40
2023-03-22T10:49:01.358Z,99837.80
2023-03-22T10:51:41.485Z,99839.20
2023-03-22T10:54:20.159Z,99837.00
2023-03-22T10:56:53.562Z,99835.00
2023-03-22T10:59:49.781Z,99839.40
2023-03-22T11:02:29.184Z,99828.40
2023-03-22T11:05:05.066Z,99828.60
2023-03-22T11:07:45.697Z,99828.20
2023-03-22T11:10:29.139Z,99824.00
2023-03-22T11:13:21.693Z,99827.60
2023-03-22T11:16:03.924Z,99824.80
2023-03-22T11:18:37.976Z,99825.20
2023-03-22T11:21:13.785Z,99821.00
2023-03-22T11:23:55.615Z,99812.40
2023-03-22T11:26:38.994Z,99806.20
2023-03-22T11:29:21.535Z,99804.20
2023-03-22T11:32:00.739Z,99795.80
2023-03-22T11:34:39.095Z,99798.00
2023-03-22T11:37:19.309Z,99788.80
2023-03-22T11:39:52.421Z,99786.80
2023-03-22T11:42:25.666Z,99780.20
2023-03-22T11:44:59.319Z,99785.80
2023-03-22T11:47:39.345Z,99781.20
2023-03-22T11:50:27.569Z,99777.40
2023-03-22T11:53:03.007Z,99776.60
2023-03-22T11:55:38.072Z,99771.20
2023-03-22T11:58:24.084Z,99771.20
2023-03-22T12:00:59.948Z,99765.40
2023-03-22T12:03:39.311Z,99758.40
2023-03-22T12:06:23.990Z,99758.60
2023-03-22T12:09:01.547Z,99757.20
2023-03-22T12:11:40.687Z,99755.20
2023-03-22T12:14:23.786Z,99752.40
2023-03-22T12:17:01.294Z,99748.60
2023-03-22T12:19:53.417Z,99747.20
2023-03-22T12:22:31.309Z,99745.80
2023-03-22T12:25:06.266Z,99744.40
2023-03-22T12:27:42.862Z,99738.80
2023-03-22T12:30:22.756Z,99743.00
2023-03-22T12:33:02.998Z,99739.60
2023-03-22T12:35:40.363Z,99740.20
2023-03-22T12:38:29.861Z,99732.20
2023-03-22T12:41:07.298Z,99735.80
2023-03-22T12:43:54.464Z,99738.20
2023-03-22T12:46:33.005Z,99732.80
2023-03-22T12:49:17.795Z,99729.40
2023-03-22T12:51:53.378Z,99733.00
2023-03-22T12:54:29.145Z,99720.00
2023-03-22T12:57:03.332Z,99722.60
2023-03-22T12:59:37.369Z,99719.60
2023-03-22T13:02:20.002Z,99714.40
2023-03-22T13:04:58.876Z,99715.40
2023-03-22T13:07:52.994Z,99706.20
2023-03-22T13:11:04.543Z,99710.60
2023-03-22T13:13:49.435Z,99704.00
2023-03-22T13:16:58.974Z,99705.00
2023-03-22T13:19:38.751Z,99701.40
2023-03-22T13:22:52.038Z,99697.20
2023-03-22T13:25:38.596Z,99696.60
2023-03-22T13:28:27.505Z,99695.80
2023-03-22T13:31:01.915Z,99697.00
2023-03-22T13:33:37.934Z,99693.00
2023-03-22T13:36:26.683Z,99688.60
2023-03-22T13:39:05.111Z,99689.20
2023-03-22T13:41:39.864Z,99694.00
2023-03-22T13:44:31.184Z,99688.00
2023-03-22T13:47:08.931Z,99691.60
2023-03-22T13:50:15.079Z,99685.40
2023-03-22T13:52:58.249Z,99687.00
2023-03-22T13:56:03.537Z,99680.60
2023-03-22T13:58:56.224Z,99676.80
2023-03-22T14:01:37.746Z,99676.20
2023-03-22T14:04:16.368Z,99679.20
2023-03-22T14:06:59.064Z,99677.00
2023-03-22T14:09:35.924Z,99672.00
2023-03-22T14:12:19.524Z,99672.80
2023-03-22T14:14:57.681Z,99667.80
2023-03-22T14:17:40.794Z,99669.80
2023-03-22T14:20:20.465Z,99655.40
